Latest Weather Observations for Jervis Bay Airfield

IDN60901

Issued at 10:11 am EDT Thursday 1 December 2022 (issued every 10 minutes, with the page automatically refreshed every 10 minutes)

About weather observations | Map of Canberra area stations | Latest observations for Canberra area | Other Formats
Station Details ID: 068264 Name: JERVIS BAY AIRFIELD AWS Lat: -35.14 Lon: 150.70 Height: 57.18 m
Data from the previous 72 hours. | See also: Recent months at Jervis Bay Airfield
Date/Time
EDT
Temp
°C
App
Temp
°C
Dew
Point
°C
Rel
Hum
%
Delta-T
°C
Wind Press
QNH
hPa
Press
MSL
hPa
Rain since
9am
mm
Dir  Spd
km/h
Gust
km/h
Spd
kts
Gust
kts
01/10:00am 19.2 18.9 13.2 68 3.4 NE 7 13 4 7 1017.2 1017.1 0.0
01/09:30am 18.0 17.6 13.1 73 2.8 SSE 7 11 4 6 1017.2 1017.1 0.0
01/09:00am 17.0 17.2 14.3 84 1.5 S 6 9 3 5 1017.5 1017.4 0.0
01/08:30am 16.1 15.3 13.9 87 1.2 SSW 11 13 6 7 1017.3 1017.2 0.0
01/08:00am 15.6 14.6 13.4 87 1.2 SSW 11 15 6 8 1017.1 1017.0 0.0
01/07:30am 16.7 16.8 13.8 83 1.6 WSW 6 7 3 4 1016.7 1016.6 0.0
01/07:00am 15.5 16.0 13.9 90 0.9 SSW 4 6 2 3 1016.4 1016.3 0.0
01/06:30am 14.7 14.6 13.4 92 0.7 SSW 6 7 3 4 1016.0 1015.9 0.0
01/06:00am 14.2 13.9 12.6 90 0.9 WSW 6 7 3 4 1015.9 1015.8 0.0
01/05:30am 13.9 13.3 12.3 90 0.9 W 7 9 4 5 1015.9 1015.8 0.0
01/05:00am 13.8 13.4 12.4 91 0.8 S 6 7 3 4 1015.6 1015.5 0.0
01/04:30am 14.1 14.9 12.5 90 0.9 CALM 0 4 0 2 1015.5 1015.4 0.0
01/04:00am 14.1 13.7 12.5 90 0.9 SW 6 6 3 3 1015.6 1015.5 0.0
01/03:30am 13.6 12.9 12.0 90 0.9 SW 7 9 4 5 1015.5 1015.4 0.0
01/03:00am 13.4 13.8 11.3 87 1.1 CALM 0 0 0 0 1015.6 1015.5 0.0
01/02:30am 14.1 14.5 11.4 84 1.4 CALM 0 2 0 1 1015.7 1015.6 0.0
01/02:00am 14.9 13.7 11.7 81 1.7 NNE 9 11 5 6 1015.8 1015.7 0.0
01/01:30am 15.2 13.6 11.6 79 1.9 N 11 13 6 7 1016.1 1016.0 0.0
01/01:00am 15.4 13.9 11.8 79 1.9 N 11 15 6 8 1016.5 1016.4 0.0
01/12:30am 16.0 14.5 12.0 77 2.2 N 11 15 6 8 1016.7 1016.6 0.0
01/12:00am 16.8 14.1 11.7 72 2.8 NNE 17 22 9 12 1016.8 1016.7 0.0
 
Date/Time
EDT
Temp
°C
App
Temp
°C
Dew
Point
°C
Rel
Hum
%
Delta-T
°C
Wind Press
QNH
hPa
Press
MSL
hPa
Rain since
9am
mm
Dir  Spd
km/h
Gust
km/h
Spd
kts
Gust
kts
30/11:30pm 16.9 14.4 12.2 74 2.6 NE 17 22 9 12 1017.1 1017.0 0.0
30/11:00pm 16.6 14.5 12.4 76 2.3 NE 15 20 8 11 1017.1 1017.0 0.0
30/10:30pm 16.8 13.8 12.1 74 2.6 NE 19 26 10 14 1017.0 1016.9 0.0
30/10:00pm 17.0 14.0 12.1 73 2.7 NNE 19 26 10 14 1017.3 1017.2 0.0
30/09:30pm 16.9 14.0 12.4 75 2.5 NE 19 24 10 13 1017.4 1017.3 0.0
30/09:00pm 16.5 13.5 12.1 75 2.4 NE 19 24 10 13 1016.9 1016.8 0.0
30/08:30pm 16.5 13.9 12.1 75 2.4 NE 17 24 9 13 1016.6 1016.5 0.0
30/08:00pm 16.8 13.7 11.7 72 2.8 NE 19 24 10 13 1016.0 1015.9 0.0
30/07:30pm 17.3 13.6 11.6 69 3.1 NE 22 30 12 16 1015.9 1015.8 0.0
30/07:00pm 17.9 14.6 11.7 67 3.4 NE 20 26 11 14 1015.7 1015.6 0.0
30/06:30pm 18.3 14.6 11.6 65 3.7 NE 22 28 12 15 1015.6 1015.5 0.0
30/06:00pm 18.6 14.8 11.2 62 4.0 NNE 22 32 12 17 1015.8 1015.7 0.0
30/05:30pm 18.5 14.9 11.8 65 3.7 NNE 22 32 12 17 1015.9 1015.8 0.0
30/05:00pm 19.4 14.6 11.7 61 4.3 NE 28 33 15 18 1016.0 1015.9 0.0
30/04:30pm 19.8 15.8 11.8 60 4.4 NNE 24 32 13 17 1016.1 1016.0 0.0
30/04:00pm 20.2 16.7 12.2 60 4.5 ENE 22 32 12 17 1015.9 1015.8 0.0
30/03:30pm 20.5 17.3 13.2 63 4.2 ENE 22 30 12 16 1016.1 1016.0 0.0
30/03:00pm 19.8 17.2 13.3 66 3.7 NE 19 28 10 15 1016.5 1016.4 0.0
30/02:30pm 20.1 17.3 13.3 65 3.9 NE 20 26 11 14 1016.7 1016.6 0.0
30/02:00pm 18.9 16.4 12.4 66 3.6 ENE 17 24 9 13 1017.1 1017.0 0.0
30/01:30pm 19.0 16.1 12.3 65 3.7 ENE 19 24 10 13 1017.5 1017.4 0.0
30/01:00pm 18.9 16.4 12.4 66 3.6 ENE 17 24 9 13 1017.7 1017.6 0.0
30/12:30pm 19.4 17.7 12.4 64 3.9 ENE 13 19 7 10 1017.7 1017.6 0.0
30/12:00pm 18.8 18.0 13.0 69 3.3 NE 9 13 5 7 1018.0 1017.9 0.0
30/11:30am 18.6 16.9 12.4 67 3.5 NE 13 19 7 10 1018.2 1018.1 0.0
30/11:00am 18.4 17.4 12.4 68 3.3 NE 9 15 5 8 1018.4 1018.3 0.0
30/10:30am 17.6 16.0 11.4 67 3.4 NE 11 13 6 7 1018.6 1018.5 0.0
30/10:00am 18.2 16.5 11.3 64 3.8 NE 11 19 6 10 1018.8 1018.7 0.0
30/09:30am 18.5 17.2 11.3 63 3.9 ENE 9 17 5 9 1018.9 1018.8 0.0
30/09:00am 17.4 16.0 11.0 66 3.4 N 9 17 5 9 1019.2 1019.0 0.0
30/08:30am 16.8 16.6 11.9 73 2.7 SW 4 7 2 4 1019.2 1019.0 0.0
30/08:00am 16.0 16.4 12.6 80 1.9 WSW 2 6 1 3 1019.2 1019.0 0.0
30/07:30am 15.3 14.7 12.2 82 1.7 W 7 9 4 5 1019.0 1018.9 0.0
30/07:00am 15.3 15.1 13.0 86 1.3 SW 6 7 3 4 1018.9 1018.8 0.0
30/06:30am 14.8 14.4 12.3 85 1.4 SSW 6 7 3 4 1018.6 1018.5 0.0
30/06:00am 14.6 15.2 11.9 84 1.5 CALM 0 0 0 0 1018.5 1018.4 0.0
30/05:30am 14.6 15.1 11.7 83 1.6 CALM 0 0 0 0 1018.3 1018.2 0.0
30/05:00am 14.6 15.0 11.2 80 1.8 CALM 0 0 0 0 1018.1 1018.0 0.0
30/04:30am 14.7 13.8 11.3 80 1.8 SE 7 11 4 6 1018.1 1018.0 0.0
30/04:00am 14.7 13.4 11.1 79 1.9 S 9 11 5 6 1018.1 1018.0 0.0
30/03:30am 14.9 13.6 11.1 78 2.0 SSW 9 13 5 7 1018.3 1018.2 0.0
30/03:00am 15.0 14.0 11.0 77 2.1 S 7 9 4 5 1018.5 1018.4 0.0
30/02:32am 15.1 14.3 10.9 76 2.2 E 6 9 3 5 1018.6 1018.5 0.0
30/02:30am 15.1 14.3 10.9 76 2.2 E 6 7 3 4 1018.6 1018.5 0.0
30/02:13am 15.3 14.8 10.9 75 2.3 NE 4 7 2 4 1018.7 1018.6 0.0
30/02:00am 15.5 13.9 10.3 71 2.7 E 9 13 5 7 1018.7 1018.6 0.0
30/01:30am 15.7 14.0 10.0 69 3.0 SE 9 17 5 9 1018.6 1018.5 0.0
30/01:00am 15.8 14.4 10.8 72 2.7 SE 9 11 5 6 1018.6 1018.5 0.0
30/12:30am 15.4 12.8 10.8 74 2.4 ESE 15 22 8 12 1018.6 1018.5 0.0
30/12:10am 15.6 14.2 11.0 74 2.5 ESE 9 22 5 12 1018.7 1018.6 0.0
30/12:00am 15.4 13.0 10.2 71 2.7 ESE 13 20 7 11 1018.7 1018.6 0.0
 
Date/Time
EDT
Temp
°C
App
Temp
°C
Dew
Point
°C
Rel
Hum
%
Delta-T
°C
Wind Press
QNH
hPa
Press
MSL
hPa
Rain since
9am
mm
Dir  Spd
km/h
Gust
km/h
Spd
kts
Gust
kts
29/11:57pm 15.4 13.4 10.2 71 2.7 SE 11 20 6 11 1018.7 1018.6 0.0
29/11:30pm 16.1 14.2 10.4 69 3.0 SE 11 15 6 8 1018.7 1018.6 0.0
29/11:00pm 16.4 14.1 10.3 67 3.2 SE 13 17 7 9 1018.6 1018.5 0.0
29/10:30pm 16.4 14.4 10.3 67 3.2 SE 11 15 6 8 1018.5 1018.4 0.0
29/10:00pm 16.4 14.0 10.0 66 3.4 SSE 13 17 7 9 1018.4 1018.3 0.0
29/09:30pm 16.6 14.0 9.5 63 3.7 SE 13 17 7 9 1018.0 1017.9 0.0
29/09:00pm 16.5 14.0 9.7 64 3.6 SE 13 19 7 10 1017.6 1017.5 0.0
29/08:30pm 16.6 13.7 9.5 63 3.7 SE 15 22 8 12 1017.3 1017.2 0.0
29/08:00pm 16.8 14.6 9.5 62 3.8 SE 11 17 6 9 1016.9 1016.8 0.0
29/07:30pm 16.9 14.2 9.1 60 4.0 SE 13 19 7 10 1016.4 1016.3 0.0
29/07:00pm 17.0 13.2 8.9 59 4.2 SE 19 24 10 13 1016.0 1015.9 0.0
29/06:30pm 17.4 13.7 9.3 59 4.2 SE 19 24 10 13 1015.6 1015.5 0.0
29/06:00pm 17.7 13.5 9.6 59 4.3 SE 22 30 12 16 1015.1 1015.0 0.0
29/05:30pm 18.2 13.7 8.7 54 4.9 SE 22 32 12 17 1014.7 1014.6 0.0
29/05:00pm 19.1 14.7 10.4 57 4.7 SSE 24 33 13 18 1014.4 1014.3 0.0
29/04:30pm 18.6 13.9 9.4 55 4.9 SSE 24 35 13 19 1014.1 1014.0 0.0
29/04:00pm 19.2 14.9 10.7 58 4.6 SSE 24 32 13 17 1013.8 1013.7 0.0
29/03:30pm 19.1 14.9 11.2 60 4.3 SSE 24 33 13 18 1013.8 1013.7 0.0
29/03:00pm 18.9 14.2 10.7 59 4.4 SSE 26 33 14 18 1013.8 1013.7 0.0
29/02:30pm 18.3 13.4 9.9 58 4.5 SSE 26 35 14 19 1013.7 1013.6 0.0
29/02:00pm 19.4 14.3 10.7 57 4.7 SSE 28 41 15 22 1013.5 1013.4 0.0
29/01:30pm 19.8 14.4 11.0 57 4.8 SSE 30 43 16 23 1013.3 1013.2 0.0
29/01:00pm 19.4 13.3 11.7 61 4.3 SSE 35 46 19 25 1013.0 1012.9 0.0
29/12:30pm 19.3 13.7 13.3 68 3.4 SSE 35 44 19 24 1012.8 1012.7 0.0
29/12:00pm 19.1 13.7 12.8 67 3.6 SSE 33 44 18 24 1012.8 1012.7 0.0
29/11:30am 19.7 14.4 11.2 58 4.7 SSE 30 43 16 23 1012.5 1012.4 0.0
29/11:00am 20.5 17.2 9.4 49 5.9 SSW 17 30 9 16 1012.1 1012.0 0.0
29/10:30am 19.9 15.7 7.3 44 6.4 SSW 19 24 10 13 1011.8 1011.7 0.0
29/10:00am 19.7 15.5 7.4 45 6.3 SW 19 26 10 14 1011.5 1011.4 0.0
29/09:30am 19.3 15.1 7.4 46 6.1 SW 19 24 10 13 1011.3 1011.2 0.0
29/09:00am 18.3 15.0 8.0 51 5.3 SW 15 22 8 12 1011.1 1011.0 0.4
29/08:30am 17.6 16.0 11.6 68 3.3 WSW 11 15 6 8 1010.8 1010.7 0.4
29/08:00am 16.8 15.9 12.5 76 2.4 SW 9 13 5 7 1010.6 1010.5 0.4
29/07:30am 16.1 14.5 12.7 80 1.9 SW 13 19 7 10 1010.2 1010.0 0.4
29/07:00am 15.4 13.8 12.7 84 1.5 SSW 13 19 7 10 1010.1 1009.9 0.4
29/06:30am 14.7 12.8 12.9 89 1.0 SW 15 20 8 11 1009.6 1009.4 0.4
29/06:00am 13.6 12.0 12.8 95 0.4 SW 13 17 7 9 1009.1 1008.9 0.4
29/05:55am 13.6 12.0 12.8 95 0.4 SW 13 17 7 9 1009.1 1008.9 0.4
29/05:41am 13.6 12.4 12.8 95 0.4 WSW 11 13 6 7 1009.0 1008.8 0.4
29/05:30am 13.5 12.3 12.7 95 0.4 WSW 11 13 6 7 1008.7 1008.5 0.4
29/05:02am 13.8 12.6 12.9 94 0.5 SW 11 15 6 8 1008.3 1008.1 0.4
29/05:00am 13.9 12.8 13.0 94 0.5 SW 11 15 6 8 1008.3 1008.1 0.4
29/04:30am 14.0 12.2 13.2 95 0.4 SW 15 20 8 11 1008.4 1008.2 0.4
29/04:11am 14.0 12.2 13.2 95 0.4 SW 15 19 8 10 1008.2 1008.0 0.4
29/04:00am 14.0 12.5 13.2 95 0.4 SSW 13 19 7 10 1008.1 1007.9 0.4
29/03:50am 14.0 12.2 13.2 95 0.4 SSW 15 20 8 11 1008.0 1007.8 0.4
29/03:30am 14.2 12.4 13.2 94 0.6 SW 15 19 8 10 1008.1 1007.9 0.4
29/03:00am 14.6 13.3 13.6 94 0.6 SW 13 17 7 9 1008.1 1007.9 0.4
29/02:30am 14.8 13.2 13.8 94 0.6 SSW 15 19 8 10 1008.4 1008.2 0.4
29/02:00am 14.8 12.8 13.8 94 0.6 SSW 17 22 9 12 1008.5 1008.3 0.4
29/01:30am 14.9 12.9 13.9 94 0.6 SSW 17 22 9 12 1008.8 1008.6 0.4
29/01:14am 14.8 13.5 13.7 93 0.6 SSW 13 19 7 10 1008.8 1008.6 0.4
29/01:00am 14.9 13.3 13.8 93 0.6 SW 15 17 8 9 1009.0 1008.8 0.4
29/12:30am 15.3 14.1 14.0 92 0.7 SW 13 19 7 10 1009.1 1008.9 0.4
29/12:00am 15.5 14.3 14.0 91 0.9 SSW 13 19 7 10 1009.1 1008.9 0.4
 
Date/Time
EDT
Temp
°C
App
Temp
°C
Dew
Point
°C
Rel
Hum
%
Delta-T
°C
Wind Press
QNH
hPa
Press
MSL
hPa
Rain since
9am
mm
Dir  Spd
km/h
Gust
km/h
Spd
kts
Gust
kts
28/11:30pm 15.7 14.6 14.4 92 0.7 SW 13 17 7 9 1009.3 1009.1 0.4
28/11:00pm 15.8 14.0 14.5 92 0.7 SW 17 20 9 11 1009.1 1008.9 0.4
28/10:30pm 16.2 14.6 14.9 92 0.8 SW 17 24 9 13 1008.9 1008.7 0.4
28/10:00pm 16.5 15.9 14.7 89 1.0 SW 11 15 6 8 1008.6 1008.4 0.4
28/09:30pm 16.6 16.4 14.6 88 1.2 SSW 9 13 5 7 1008.4 1008.2 0.4
28/09:00pm 16.6 16.3 14.4 87 1.3 SSE 9 13 5 7 1008.3 1008.1 0.4
28/08:30pm 16.9 15.9 14.5 86 1.4 S 13 15 7 8 1008.0 1007.8 0.4
28/08:00pm 17.4 18.4 14.3 82 1.8 E 2 7 1 4 1007.6 1007.4 0.4
28/07:30pm 17.5 17.5 14.2 81 1.9 E 7 9 4 5 1007.2 1007.0 0.4
28/07:00pm 17.7 17.3 14.0 79 2.1 ENE 9 15 5 8 1006.8 1006.6 0.4
28/06:30pm 18.1 16.8 13.8 76 2.5 E 13 20 7 11 1006.3 1006.1 0.4
28/06:00pm 17.7 17.3 14.0 79 2.1 SE 9 17 5 9 1006.1 1005.9 0.4
28/05:30pm 17.4 16.5 13.7 79 2.1 E 11 17 6 9 1005.8 1005.6 0.4
28/05:00pm 17.9 16.3 13.8 77 2.3 E 15 20 8 11 1005.5 1005.3 0.4
28/04:30pm 18.4 16.9 14.1 76 2.5 E 15 20 8 11 1005.5 1005.3 0.4
28/04:00pm 18.1 15.9 13.4 74 2.7 ESE 17 22 9 12 1005.6 1005.4 0.4
28/03:30pm 17.5 15.7 13.4 77 2.3 E 15 20 8 11 1005.8 1005.6 0.4
28/03:00pm 17.9 15.8 13.6 76 2.5 ESE 17 22 9 12 1005.6 1005.4 0.4
28/02:30pm 18.6 17.4 14.1 75 2.6 ESE 13 20 7 11 1005.7 1005.5 0.4
28/02:18pm 17.8 15.6 13.3 75 2.5 ESE 17 22 9 12 1005.8 1005.6 0.4
28/02:00pm 17.9 16.8 14.2 79 2.1 SE 13 20 7 11 1006.0 1005.8 0.4
28/01:30pm 17.4 15.7 14.7 84 1.6 SE 17 22 9 12 1006.2 1006.0 0.4
28/01:00pm 16.9 14.9 14.0 83 1.7 SSE 17 24 9 13 1006.6 1006.4 0.4
28/12:30pm 17.2 15.3 14.3 83 1.7 SSE 17 20 9 11 1006.8 1006.6 0.4
28/12:00pm 16.8 14.6 14.8 88 1.2 SSW 20 24 11 13 1007.0 1006.8 0.4
28/11:30am 16.5 14.6 15.2 92 0.8 SSW 19 24 10 13 1007.1 1006.9 0.4
28/11:01am 15.9 14.6 14.9 94 0.6 SSW 15 22 8 12 1007.1 1006.9 0.4
28/11:00am 15.9 14.6 14.8 93 0.6 SSW 15 22 8 12 1007.2 1007.0 0.4
28/10:44am 16.0 15.2 15.0 94 0.6 SSW 13 19 7 10 1007.3 1007.1 0.4
28/10:34am 15.9 14.5 14.6 92 0.7 SSW 15 20 8 11 1007.3 1007.1 0.2
28/10:30am 16.0 14.3 14.7 92 0.7 SSW 17 20 9 11 1007.3 1007.1 0.2
28/10:20am 15.9 14.4 14.3 90 0.9 SSW 15 19 8 10 1007.4 1007.2 0.2

Latest Capital City Observations: Canberra | Sydney | Melbourne | Brisbane | Adelaide | Perth | Hobart | Darwin

Other formats

Comma delimited format used in spreadsheet applications
http://www.bom.gov.au/fwo/IDN60903/IDN60903.94751.axf

JavaScript Object Notation format (JSON) in row-major order
http://www.bom.gov.au/fwo/IDN60903/IDN60903.94751.json

Data quality

Most of these data are generated automatically and are frequently updated. Quality checks on data are not normally performed. It is possible for incorrect values to appear. Refer to information at About Latest Weather Observations and please check the disclaimer before using these data.